Time;durP1;ratioP1;P1;durP2;ratioP2;P2;SDS_P1;SDS_P2;PMS_P1;PMS_P2;Temp;Humidity;BMP_temperature;BMP_pressure;BME280_temperature;BME280_humidity;BME280_pressure;Samples;Min_cycle;Max_cycle;Signal;HPM_P1;HPM_P2
2022/12/31 00:01:25;;;;;;;;;;;;;;;9.26;60.59;99740.22;4483857;31;34602;-93
2022/12/31 00:03:53;;;;;;;;;;;;;;;9.41;60.16;99741.47;4495588;31;33426;-94
2022/12/31 00:06:31;;;;;;;;;;;;;;;8.91;61.89;99744.44;4469370;32;34315;-93
2022/12/31 00:09:00;;;;;;;;;;;;;;;8.65;61.91;99738.50;4470362;31;32465;-85
2022/12/31 00:11:27;;;;;;;;;;;;;;;8.78;61.75;99742.31;4479806;31;34253;-81
2022/12/31 00:13:55;;;;;;;;;;;;;;;8.46;62.64;99739.66;4483667;31;33127;-86
2022/12/31 00:16:27;;;;;;;;;;;;;;;7.45;65.92;99745.78;4475879;31;34988;-91
2022/12/31 00:18:55;;;;;;;;;;;;;;;7.34;66.50;99753.16;4494067;31;34229;-84
2022/12/31 00:21:22;;;;;;;;;;;;;;;8.71;62.48;99751.63;4467851;32;35165;-91
2022/12/31 00:23:51;;;;;;;;;;;;;;;8.71;61.85;99761.06;4487527;31;33378;-93
2022/12/31 00:26:20;;;;;;;;;;;;;;;8.97;61.09;99770.44;4489983;31;35187;-84
2022/12/31 00:28:47;;;;;;;;;;;;;;;8.71;62.39;99761.06;4476616;31;35516;-81
2022/12/31 00:31:21;;;;;;;;;;;;;;;9.08;60.70;99768.16;4469656;32;34126;-92
2022/12/31 00:33:48;;;;;;;;;;;;;;;8.79;62.04;99767.34;4471199;31;34296;-93
2022/12/31 00:36:18;;;;;;;;;;;;;;;8.67;62.17;99770.41;4490009;31;35095;-92
2022/12/31 00:38:46;;;;;;;;;;;;;;;8.20;63.74;99768.94;4491377;31;34182;-93
2022/12/31 00:41:14;;;;;;;;;;;;;;;7.77;64.45;99770.13;4486626;31;34510;-93
2022/12/31 00:43:41;;;;;;;;;;;;;;;8.18;64.24;99771.50;4486036;31;33705;-90
2022/12/31 00:46:08;;;;;;;;;;;;;;;8.68;61.61;99772.19;4482323;31;34757;-91
2022/12/31 00:48:36;;;;;;;;;;;;;;;8.30;63.41;99773.56;4484932;31;35287;-82
2022/12/31 00:51:06;;;;;;;;;;;;;;;8.48;62.82;99768.12;4475827;31;34387;-91
2022/12/31 00:53:33;;;;;;;;;;;;;;;8.12;64.12;99778.16;4479605;31;34472;-93
2022/12/31 00:56:01;;;;;;;;;;;;;;;9.20;59.88;99791.78;4477436;31;35425;-82
2022/12/31 00:58:28;;;;;;;;;;;;;;;9.38;59.54;99783.66;4483088;31;35202;-81
2022/12/31 01:00:56;;;;;;;;;;;;;;;8.80;61.37;99789.78;4468607;31;34849;-93
2022/12/31 01:03:24;;;;;;;;;;;;;;;8.44;62.25;99787.81;4487991;31;33706;-93
2022/12/31 01:05:51;;;;;;;;;;;;;;;8.56;62.50;99792.50;4484169;31;35020;-90
2022/12/31 01:08:18;;;;;;;;;;;;;;;9.44;59.79;99789.03;4483385;31;34255;-81
2022/12/31 01:13:35;;;;;;;;;;;;;;;8.76;61.95;99783.62;4482481;32;33154;-80
2022/12/31 01:16:09;;;;;;;;;;;;;;;8.37;63.01;99784.97;4465476;32;33831;-93
2022/12/31 01:18:36;;;;;;;;;;;;;;;8.81;61.69;99788.06;4471664;31;34465;-85
2022/12/31 01:21:05;;;;;;;;;;;;;;;9.49;59.30;99784.84;4483064;31;34972;-93
2022/12/31 01:23:32;;;;;;;;;;;;;;;9.42;59.53;99787.22;4470941;32;34043;-93
2022/12/31 01:26:00;;;;;;;;;;;;;;;8.70;61.56;99791.19;4488391;31;33929;-81
2022/12/31 01:28:28;;;;;;;;;;;;;;;8.56;62.37;99792.50;4487592;31;34270;-91
2022/12/31 01:30:57;;;;;;;;;;;;;;;8.73;61.36;99791.28;4484422;31;34585;-92
2022/12/31 01:33:24;;;;;;;;;;;;;;;8.46;62.20;99790.47;4482857;31;33166;-91
2022/12/31 01:35:52;;;;;;;;;;;;;;;9.07;61.04;99794.00;4468105;31;35015;-81
2022/12/31 01:38:19;;;;;;;;;;;;;;;9.39;59.13;99802.66;4481902;31;35245;-93
2022/12/31 01:40:46;;;;;;;;;;;;;;;9.88;58.40;99801.38;4472018;31;33907;-92
2022/12/31 01:43:15;;;;;;;;;;;;;;;9.42;59.49;99808.78;4468593;32;33733;-81
2022/12/31 01:45:43;;;;;;;;;;;;;;;8.25;63.11;99804.41;4491922;31;33703;-81
2022/12/31 01:48:11;;;;;;;;;;;;;;;9.11;60.00;99798.44;4484205;31;34285;-92
2022/12/31 01:50:39;;;;;;;;;;;;;;;9.27;60.19;99793.72;4467518;31;34303;-90
2022/12/31 01:53:06;;;;;;;;;;;;;;;8.36;63.23;99797.00;4473661;31;33502;-81
2022/12/31 01:55:36;;;;;;;;;;;;;;;9.27;60.38;99796.31;4499851;31;33830;-83
2022/12/31 01:58:05;;;;;;;;;;;;;;;10.33;56.98;99793.03;4486420;31;34065;-95
2022/12/31 02:00:33;;;;;;;;;;;;;;;9.29;59.88;99792.91;4488171;31;34461;-81
2022/12/31 02:03:00;;;;;;;;;;;;;;;9.20;59.70;99793.50;4499776;31;33280;-81
2022/12/31 02:05:29;;;;;;;;;;;;;;;7.97;63.90;99800.06;4486888;31;34303;-89
2022/12/31 02:07:56;;;;;;;;;;;;;;;9.07;61.02;99800.03;4473262;31;33863;-93
2022/12/31 02:10:24;;;;;;;;;;;;;;;9.39;59.21;99797.47;4495754;31;34287;-82
2022/12/31 02:12:51;;;;;;;;;;;;;;;9.77;58.95;99800.22;4487136;31;33605;-88
2022/12/31 02:15:19;;;;;;;;;;;;;;;10.34;57.12;99800.84;4473823;32;33925;-84
2022/12/31 02:17:50;;;;;;;;;;;;;;;8.51;62.40;99807.84;4474468;32;34461;-81
2022/12/31 02:20:36;;;;;;;;;;;;;;;9.11;60.22;99804.47;4470439;31;34272;-86
2022/12/31 02:23:06;;;;;;;;;;;;;;;8.80;61.60;99813.03;4489334;31;34446;-94
2022/12/31 02:25:37;;;;;;;;;;;;;;;9.33;59.97;99815.44;4496610;31;34869;-81
2022/12/31 02:28:16;;;;;;;;;;;;;;;10.09;57.36;99801.94;4491519;31;34379;-89
2022/12/31 02:30:44;;;;;;;;;;;;;;;9.90;58.00;99803.19;4485252;31;34037;-82
2022/12/31 02:33:12;;;;;;;;;;;;;;;10.57;56.65;99793.59;4499931;31;34282;-91
2022/12/31 02:36:09;;;;;;;;;;;;;;;10.16;57.49;99795.19;4492646;31;33478;-94
2022/12/31 02:38:38;;;;;;;;;;;;;;;9.96;58.07;99810.22;4469089;31;34145;-93
2022/12/31 02:41:05;;;;;;;;;;;;;;;10.37;56.41;99807.81;4467283;32;33968;-91
2022/12/31 02:43:32;;;;;;;;;;;;;;;10.82;55.35;99813.16;4467180;32;33266;-94
2022/12/31 02:46:12;;;;;;;;;;;;;;;11.22;53.91;99813.16;4479838;31;33698;-92
2022/12/31 02:48:42;;;;;;;;;;;;;;;11.11;54.11;99810.34;4466527;32;34353;-81
2022/12/31 02:51:16;;;;;;;;;;;;;;;11.17;54.10;99806.16;4463497;32;35075;-81
2022/12/31 02:53:52;;;;;;;;;;;;;;;10.89;54.91;99806.41;4484185;32;33618;-80
2022/12/31 02:56:19;;;;;;;;;;;;;;;10.26;56.16;99799.75;4473687;32;34920;-80
2022/12/31 03:02:12;;;;;;;;;;;;;;;10.68;55.36;99794.72;4470605;32;34166;-81
2022/12/31 03:05:00;;;;;;;;;;;;;;;10.53;55.41;99794.38;4479108;31;33682;-85
2022/12/31 03:07:29;;;;;;;;;;;;;;;10.77;54.91;99788.84;4471794;32;33893;-82
2022/12/31 03:09:56;;;;;;;;;;;;;;;10.13;56.84;99782.16;4483832;31;34263;-81
2022/12/31 03:15:19;;;;;;;;;;;;;;;11.30;53.60;99802.06;4470941;32;33438;-91
2022/12/31 03:17:55;;;;;;;;;;;;;;;10.60;55.62;99785.88;4488435;31;34875;-91
2022/12/31 03:23:18;;;;;;;;;;;;;;;8.61;61.13;99792.66;4468098;32;33963;-93
2022/12/31 03:25:46;;;;;;;;;;;;;;;9.89;57.83;99785.03;4464331;32;34618;-90
2022/12/31 03:28:14;;;;;;;;;;;;;;;10.43;56.28;99779.44;4473858;32;34263;-82
2022/12/31 03:30:42;;;;;;;;;;;;;;;9.32;59.67;99787.78;4481619;31;34437;-91
2022/12/31 03:33:09;;;;;;;;;;;;;;;9.79;58.03;99790.78;4473183;32;34253;-91
2022/12/31 03:35:37;;;;;;;;;;;;;;;9.57;58.33;99782.44;4472381;31;33457;-92
2022/12/31 03:38:04;;;;;;;;;;;;;;;9.05;59.88;99782.72;4469589;32;34101;-83
2022/12/31 03:40:35;;;;;;;;;;;;;;;8.19;62.94;99788.72;4483663;32;34098;-92
2022/12/31 03:43:02;;;;;;;;;;;;;;;9.17;60.10;99786.56;4482612;32;33880;-83
2022/12/31 03:45:30;;;;;;;;;;;;;;;9.33;60.17;99790.44;4483391;31;34084;-82
2022/12/31 03:47:57;;;;;;;;;;;;;;;9.45;59.44;99793.34;4488267;31;33912;-80
2022/12/31 03:50:24;;;;;;;;;;;;;;;9.39;59.80;99790.59;4478439;31;34259;-89
2022/12/31 03:52:52;;;;;;;;;;;;;;;9.45;59.30;99785.59;4486324;31;35093;-82
2022/12/31 03:55:19;;;;;;;;;;;;;;;8.94;60.99;99787.56;4477111;32;34578;-81
2022/12/31 03:57:46;;;;;;;;;;;;;;;9.47;59.63;99783.94;4472797;32;34751;-81
2022/12/31 04:00:17;;;;;;;;;;;;;;;10.05;57.86;99781.09;4468548;31;35234;-82
2022/12/31 04:02:45;;;;;;;;;;;;;;;9.71;59.01;99782.81;4479906;31;34163;-81
2022/12/31 04:05:12;;;;;;;;;;;;;;;8.53;62.65;99784.66;4469612;32;33627;-93
2022/12/31 04:07:40;;;;;;;;;;;;;;;9.53;59.62;99777.16;4483565;32;35670;-82
2022/12/31 04:10:08;;;;;;;;;;;;;;;10.42;56.76;99786.34;4482826;31;34218;-82
2022/12/31 04:12:35;;;;;;;;;;;;;;;10.03;58.00;99775.84;4479931;31;35168;-94
2022/12/31 04:15:03;;;;;;;;;;;;;;;9.52;59.27;99781.47;4483608;32;34595;-82
2022/12/31 04:17:31;;;;;;;;;;;;;;;8.90;61.82;99784.06;4476594;32;34910;-94
2022/12/31 04:19:58;;;;;;;;;;;;;;;8.37;62.93;99791.06;4480463;31;34290;-94
2022/12/31 04:22:25;;;;;;;;;;;;;;;8.81;61.44;99791.53;4482040;31;35240;-88
2022/12/31 04:24:52;;;;;;;;;;;;;;;9.71;59.03;99808.72;4483462;32;33661;-91
2022/12/31 04:27:19;;;;;;;;;;;;;;;9.33;60.37;99811.13;4483181;32;34048;-82
2022/12/31 04:29:47;;;;;;;;;;;;;;;9.80;59.05;99811.53;4479423;32;34150;-83
2022/12/31 04:32:14;;;;;;;;;;;;;;;9.64;59.02;99799.91;4474427;31;34148;-83
2022/12/31 04:34:41;;;;;;;;;;;;;;;9.31;59.75;99812.78;4482948;31;33574;-82
2022/12/31 04:37:08;;;;;;;;;;;;;;;9.21;60.43;99816.84;4480645;32;33794;-91
2022/12/31 04:39:36;;;;;;;;;;;;;;;10.40;57.41;99807.88;4482936;31;34010;-92
2022/12/31 04:42:03;;;;;;;;;;;;;;;9.80;59.16;99808.94;4482033;31;34841;-85
2022/12/31 04:44:31;;;;;;;;;;;;;;;9.96;58.74;99823.16;4483259;32;34076;-89
2022/12/31 04:46:58;;;;;;;;;;;;;;;9.52;59.82;99830.63;4494100;31;35081;-89
2022/12/31 04:49:26;;;;;;;;;;;;;;;9.89;58.78;99829.06;4481605;32;34370;-88
2022/12/31 04:51:53;;;;;;;;;;;;;;;10.78;56.22;99823.44;4478772;31;34543;-92
2022/12/31 04:54:20;;;;;;;;;;;;;;;11.18;55.11;99818.28;4482797;31;34386;-89
2022/12/31 04:56:48;;;;;;;;;;;;;;;11.76;53.79;99817.66;4482657;32;35099;-93
2022/12/31 04:59:15;;;;;;;;;;;;;;;11.95;53.38;99822.38;4482881;32;34434;-80
2022/12/31 05:01:43;;;;;;;;;;;;;;;11.99;52.50;99833.69;4476881;31;34527;-83
2022/12/31 05:04:11;;;;;;;;;;;;;;;12.17;52.06;99832.28;4474965;32;34409;-90
2022/12/31 05:06:38;;;;;;;;;;;;;;;10.60;55.63;99840.31;4477306;32;34116;-82
2022/12/31 05:09:05;;;;;;;;;;;;;;;10.46;56.05;99842.59;4481684;31;32770;-86
2022/12/31 05:11:34;;;;;;;;;;;;;;;11.83;52.66;99850.69;4480610;31;35293;-85
2022/12/31 05:14:01;;;;;;;;;;;;;;;11.86;52.57;99856.00;4483328;32;34368;-92
2022/12/31 05:16:29;;;;;;;;;;;;;;;11.60;52.96;99864.13;4485057;31;35133;-85
2022/12/31 05:18:56;;;;;;;;;;;;;;;11.65;52.73;99866.81;4479292;31;35429;-83
2022/12/31 05:21:23;;;;;;;;;;;;;;;11.54;53.19;99863.13;4472838;32;34111;-84
2022/12/31 05:23:51;;;;;;;;;;;;;;;10.48;56.10;99858.19;4473505;32;34351;-80
2022/12/31 05:26:18;;;;;;;;;;;;;;;10.25;56.72;99862.81;4496932;31;34395;-82
2022/12/31 05:28:46;;;;;;;;;;;;;;;10.68;55.72;99859.56;4504256;31;34345;-93
2022/12/31 05:31:13;;;;;;;;;;;;;;;10.74;55.78;99863.13;4489580;31;35323;-85
2022/12/31 05:33:40;;;;;;;;;;;;;;;11.12;54.42;99877.81;4486719;32;33566;-81
2022/12/31 05:36:08;;;;;;;;;;;;;;;11.16;54.39;99886.56;4477901;32;34527;-82
2022/12/31 05:38:36;;;;;;;;;;;;;;;11.35;53.54;99887.81;4481038;31;34428;-87
2022/12/31 05:41:04;;;;;;;;;;;;;;;11.29;53.84;99882.50;4486171;31;34588;-93
2022/12/31 05:43:32;;;;;;;;;;;;;;;11.46;53.61;99883.72;4487833;32;33032;-93
2022/12/31 05:46:02;;;;;;;;;;;;;;;11.49;53.44;99896.78;4487707;32;33985;-93
2022/12/31 05:48:30;;;;;;;;;;;;;;;11.34;53.81;99899.06;4487493;32;35347;-91
2022/12/31 05:50:57;;;;;;;;;;;;;;;11.42;54.03;99903.56;4484638;31;35273;-88
2022/12/31 05:53:24;;;;;;;;;;;;;;;12.06;52.08;99892.72;4485031;31;33544;-82
2022/12/31 05:55:52;;;;;;;;;;;;;;;12.46;51.41;99896.88;4481021;31;33661;-83
2022/12/31 05:58:19;;;;;;;;;;;;;;;12.14;51.54;99899.81;4486423;31;34425;-91
2022/12/31 06:00:46;;;;;;;;;;;;;;;12.04;51.58;99902.22;4485460;31;34111;-83
2022/12/31 06:03:14;;;;;;;;;;;;;;;11.88;52.06;99908.84;4490926;31;34121;-91
2022/12/31 06:05:41;;;;;;;;;;;;;;;12.10;51.85;99899.72;4473001;32;34877;-89
2022/12/31 06:08:09;;;;;;;;;;;;;;;12.01;52.11;99908.25;4491907;31;34407;-93
2022/12/31 06:10:37;;;;;;;;;;;;;;;12.37;50.46;99902.81;4498152;31;34010;-91
2022/12/31 06:13:05;;;;;;;;;;;;;;;11.93;52.36;99910.69;4471636;32;34788;-94
2022/12/31 06:15:38;;;;;;;;;;;;;;;12.12;51.48;99909.31;4475946;31;33868;-88
2022/12/31 06:18:05;;;;;;;;;;;;;;;12.24;51.48;99916.47;4481231;32;34868;-88
2022/12/31 06:20:35;;;;;;;;;;;;;;;12.68;50.39;99907.66;4471891;32;35371;-80
2022/12/31 06:23:02;;;;;;;;;;;;;;;12.71;50.21;99897.31;4477592;32;33770;-85
2022/12/31 06:25:30;;;;;;;;;;;;;;;12.83;49.82;99898.34;4482787;31;34991;-89
2022/12/31 06:27:57;;;;;;;;;;;;;;;12.94;49.54;99901.13;4483048;31;34499;-83
2022/12/31 06:30:24;;;;;;;;;;;;;;;13.10;49.29;99897.88;4493858;31;34463;-90
2022/12/31 06:32:51;;;;;;;;;;;;;;;13.12;49.35;99892.72;4484813;31;34400;-90
2022/12/31 06:35:19;;;;;;;;;;;;;;;13.47;48.76;99906.22;4470054;31;34321;-81
2022/12/31 06:37:47;;;;;;;;;;;;;;;13.26;48.94;99904.25;4483356;31;33991;-92
2022/12/31 06:40:14;;;;;;;;;;;;;;;13.58;48.44;99901.16;4482475;31;34129;-88
2022/12/31 06:42:41;;;;;;;;;;;;;;;13.81;47.75;99901.44;4484046;31;33583;-87
2022/12/31 06:45:09;;;;;;;;;;;;;;;13.78;47.87;99906.59;4483806;31;34130;-92
2022/12/31 06:47:36;;;;;;;;;;;;;;;13.75;47.89;99911.78;4500151;31;35041;-91
2022/12/31 06:50:04;;;;;;;;;;;;;;;13.86;47.52;99907.56;4499023;31;33957;-83
2022/12/31 06:52:31;;;;;;;;;;;;;;;13.62;47.72;99909.03;4497196;31;33832;-91
2022/12/31 06:54:59;;;;;;;;;;;;;;;13.92;46.77;99912.84;4485719;31;34326;-91
2022/12/31 06:57:26;;;;;;;;;;;;;;;13.63;47.36;99913.38;4499967;31;35236;-91
2022/12/31 06:59:53;;;;;;;;;;;;;;;13.74;47.16;99907.44;4484001;31;34519;-92
2022/12/31 07:02:40;;;;;;;;;;;;;;;13.78;47.19;99911.81;4467932;32;34328;-93
2022/12/31 07:05:12;;;;;;;;;;;;;;;13.58;47.49;99917.66;4483730;32;34277;-89
2022/12/31 07:07:58;;;;;;;;;;;;;;;13.77;47.35;99921.38;4484089;31;34236;-92
2022/12/31 07:10:28;;;;;;;;;;;;;;;13.29;48.03;99925.09;4495340;31;34525;-82
2022/12/31 07:13:00;;;;;;;;;;;;;;;13.04;48.68;99922.97;4499470;31;33570;-92
2022/12/31 07:15:33;;;;;;;;;;;;;;;13.17;48.32;99929.22;4471619;32;34893;-88
2022/12/31 07:18:01;;;;;;;;;;;;;;;13.58;47.59;99922.88;4486266;31;34146;-80
2022/12/31 07:20:28;;;;;;;;;;;;;;;13.79;47.21;99931.84;4480026;31;34215;-93
2022/12/31 07:22:56;;;;;;;;;;;;;;;13.92;47.14;99933.72;4482945;31;32116;-80
2022/12/31 07:25:24;;;;;;;;;;;;;;;13.95;46.96;99931.16;4477525;31;34135;-80
2022/12/31 07:28:01;;;;;;;;;;;;;;;13.80;47.12;99936.19;4481471;31;33866;-81
2022/12/31 07:30:49;;;;;;;;;;;;;;;13.43;47.63;99937.44;4482529;31;35189;-82
2022/12/31 07:33:23;;;;;;;;;;;;;;;12.98;49.07;99928.06;4483776;32;34493;-93
2022/12/31 07:36:09;;;;;;;;;;;;;;;11.43;53.54;99949.44;4469037;32;34139;-83
2022/12/31 07:38:49;;;;;;;;;;;;;;;12.57;50.25;99942.16;4478536;32;33129;-83
2022/12/31 07:41:32;;;;;;;;;;;;;;;12.35;50.93;99940.03;4481677;31;35163;-89
2022/12/31 07:44:11;;;;;;;;;;;;;;;12.88;49.67;99940.97;4481880;31;33169;-82
2022/12/31 07:46:55;;;;;;;;;;;;;;;11.65;53.17;99961.16;4479288;31;33976;-91
2022/12/31 07:49:23;;;;;;;;;;;;;;;11.14;54.62;99954.00;4480797;31;34089;-89
2022/12/31 07:51:51;;;;;;;;;;;;;;;11.62;53.40;99958.50;4475793;31;34513;-92
2022/12/31 07:54:18;;;;;;;;;;;;;;;10.53;55.98;99960.31;4483263;31;34514;-80
2022/12/31 07:56:46;;;;;;;;;;;;;;;11.02;55.45;99965.78;4482349;31;34221;-82
2022/12/31 07:59:17;;;;;;;;;;;;;;;12.00;52.20;99970.56;4483249;32;35354;-83
2022/12/31 08:01:54;;;;;;;;;;;;;;;11.68;53.39;99969.03;4479498;31;34262;-90
2022/12/31 08:04:51;;;;;;;;;;;;;;;12.39;51.49;99965.28;4468991;32;33451;-89
2022/12/31 08:07:18;;;;;;;;;;;;;;;11.20;55.01;99977.47;4440456;32;33683;-92
2022/12/31 08:09:57;;;;;;;;;;;;;;;12.30;52.00;99991.94;4483563;31;34255;-83
2022/12/31 08:12:24;;;;;;;;;;;;;;;12.31;52.33;99996.31;4480745;31;35295;-81
2022/12/31 08:14:52;;;;;;;;;;;;;;;12.89;51.08;99994.75;4484007;31;34253;-81
2022/12/31 08:17:19;;;;;;;;;;;;;;;12.81;50.89;99990.28;4498932;31;34977;-92
2022/12/31 08:19:46;;;;;;;;;;;;;;;11.08;54.87;99985.00;4498465;31;35282;-83
2022/12/31 08:22:23;;;;;;;;;;;;;;;12.18;52.14;99995.19;4484080;31;35176;-81
2022/12/31 08:27:54;;;;;;;;;;;;;;;12.70;50.91;100008.31;4471234;32;34103;-84
2022/12/31 08:30:22;;;;;;;;;;;;;;;13.00;50.24;100015.75;4484658;31;34185;-82
2022/12/31 08:33:02;;;;;;;;;;;;;;;12.38;51.08;100028.50;4468931;32;33981;-83
2022/12/31 08:35:48;;;;;;;;;;;;;;;12.68;50.49;100037.72;4494347;31;33483;-82
2022/12/31 08:38:22;;;;;;;;;;;;;;;12.93;50.07;100037.31;4498049;31;33948;-82
2022/12/31 08:40:55;;;;;;;;;;;;;;;12.41;51.23;100060.63;4484658;31;34371;-88
2022/12/31 08:43:34;;;;;;;;;;;;;;;12.82;50.18;100057.06;4481547;31;35286;-83
2022/12/31 08:46:02;;;;;;;;;;;;;;;13.10;49.66;100048.88;4493062;31;34524;-84
2022/12/31 08:48:29;;;;;;;;;;;;;;;12.97;49.84;100051.25;4465164;32;35008;-89
2022/12/31 08:50:56;;;;;;;;;;;;;;;12.77;50.50;100045.72;4479784;31;35107;-81
2022/12/31 08:53:24;;;;;;;;;;;;;;;12.17;51.75;100044.56;4483670;31;34101;-89
2022/12/31 08:55:53;;;;;;;;;;;;;;;12.29;51.62;100056.94;4469089;32;33203;-82
2022/12/31 08:58:39;;;;;;;;;;;;;;;13.20;49.60;100046.44;4469367;32;35121;-82
2022/12/31 09:01:06;;;;;;;;;;;;;;;12.65;50.87;100075.88;4486070;31;33937;-94
2022/12/31 09:03:40;;;;;;;;;;;;;;;12.86;51.08;100095.31;4483448;31;33832;-94
2022/12/31 09:06:11;;;;;;;;;;;;;;;12.93;50.95;100076.34;4471315;32;33906;-92
2022/12/31 09:08:57;;;;;;;;;;;;;;;13.40;50.17;100073.69;4483107;31;35553;-92
2022/12/31 09:11:28;;;;;;;;;;;;;;;13.29;49.86;100059.62;4469390;32;34042;-89
2022/12/31 09:13:55;;;;;;;;;;;;;;;12.94;50.66;100052.06;4468817;32;34523;-93
2022/12/31 09:16:29;;;;;;;;;;;;;;;13.02;50.75;100055.69;4482402;32;33551;-89
2022/12/31 09:18:56;;;;;;;;;;;;;;;13.29;49.82;100038.78;4481718;31;33947;-92
2022/12/31 09:21:25;;;;;;;;;;;;;;;13.78;48.75;100039.53;4468974;31;34212;-81
2022/12/31 09:23:52;;;;;;;;;;;;;;;13.54;49.38;100030.50;4480205;31;34314;-85
2022/12/31 09:26:20;;;;;;;;;;;;;;;13.93;48.53;100033.63;4469295;31;33405;-86
2022/12/31 09:28:51;;;;;;;;;;;;;;;14.06;48.10;100031.22;4482072;32;34855;-91
2022/12/31 09:31:26;;;;;;;;;;;;;;;14.14;47.99;100022.63;4483364;32;35449;-86
2022/12/31 09:33:56;;;;;;;;;;;;;;;14.02;47.95;100008.56;4468198;31;34871;-93
2022/12/31 09:36:29;;;;;;;;;;;;;;;14.01;48.29;100016.34;4472886;32;33350;-83
2022/12/31 09:39:02;;;;;;;;;;;;;;;14.09;48.44;100010.41;4474599;32;35239;-93
2022/12/31 09:41:36;;;;;;;;;;;;;;;14.26;47.81;100013.19;4478982;31;35132;-88
2022/12/31 09:44:27;;;;;;;;;;;;;;;13.77;48.93;100009.09;4484789;31;34754;-92
2022/12/31 09:46:57;;;;;;;;;;;;;;;13.70;49.42;100007.28;4478110;31;33399;-95
2022/12/31 09:49:51;;;;;;;;;;;;;;;13.59;49.54;100007.13;4499465;31;35072;-94
2022/12/31 09:52:29;;;;;;;;;;;;;;;13.56;49.88;100012.28;4496038;31;33918;-84
2022/12/31 09:55:06;;;;;;;;;;;;;;;14.27;48.48;100008.84;4484985;31;34597;-90
2022/12/31 09:57:39;;;;;;;;;;;;;;;12.92;51.68;100004.34;4499277;31;33227;-89
2022/12/31 10:00:20;;;;;;;;;;;;;;;14.05;48.84;99985.16;4484590;31;33686;-92
2022/12/31 10:03:03;;;;;;;;;;;;;;;12.75;52.59;99982.34;4488070;31;35003;-95
2022/12/31 10:05:30;;;;;;;;;;;;;;;14.04;49.40;99985.13;4502032;31;34371;-95
2022/12/31 10:08:00;;;;;;;;;;;;;;;14.12;49.01;99989.56;4488382;31;33309;-92
2022/12/31 10:10:30;;;;;;;;;;;;;;;13.92;50.02;99992.78;4500708;31;34372;-89
2022/12/31 10:13:16;;;;;;;;;;;;;;;14.31;49.00;99994.97;4500843;31;34406;-85
2022/12/31 10:15:43;;;;;;;;;;;;;;;14.42;49.01;99989.88;4500642;31;34651;-90
2022/12/31 10:18:29;;;;;;;;;;;;;;;14.44;48.72;99996.88;4502440;31;34238;-86
2022/12/31 10:21:00;;;;;;;;;;;;;;;13.72;50.19;99993.41;4503115;31;34167;-94
2022/12/31 10:23:37;;;;;;;;;;;;;;;13.37;51.13;99986.00;4502807;31;34381;-87
2022/12/31 10:26:23;;;;;;;;;;;;;;;12.62;53.28;99976.94;4500947;31;34447;-83
2022/12/31 10:28:51;;;;;;;;;;;;;;;13.86;50.15;99981.44;4502188;31;34288;-87
2022/12/31 10:31:27;;;;;;;;;;;;;;;13.39;50.93;99996.41;4501662;31;34162;-89
2022/12/31 10:34:00;;;;;;;;;;;;;;;13.31;51.64;99995.44;4500605;31;34021;-87
2022/12/31 10:36:29;;;;;;;;;;;;;;;13.12;51.96;99979.50;4498161;31;34417;-83
2022/12/31 10:39:00;;;;;;;;;;;;;;;13.83;50.26;99988.34;4486229;31;32332;-95
2022/12/31 10:41:40;;;;;;;;;;;;;;;12.76;53.05;99976.28;4486107;31;34327;-82
2022/12/31 10:44:22;;;;;;;;;;;;;;;13.45;50.72;99975.69;4484451;31;34851;-91
2022/12/31 10:46:50;;;;;;;;;;;;;;;13.78;50.30;99990.88;4480988;32;34276;-94
2022/12/31 10:49:23;;;;;;;;;;;;;;;13.79;50.10;99990.03;4484398;32;33736;-94
2022/12/31 10:52:06;;;;;;;;;;;;;;;13.90;49.54;99992.75;4482407;31;34062;-92
2022/12/31 10:54:51;;;;;;;;;;;;;;;14.14;49.27;100001.75;4490107;31;34278;-81
2022/12/31 10:57:19;;;;;;;;;;;;;;;13.77;50.06;100002.16;4489331;31;34447;-94
2022/12/31 10:59:55;;;;;;;;;;;;;;;14.08;49.33;99992.13;4491721;31;33670;-94
2022/12/31 11:02:32;;;;;;;;;;;;;;;13.92;49.65;99998.88;4501660;31;34258;-93
2022/12/31 11:05:08;;;;;;;;;;;;;;;13.88;49.92;100012.72;4500395;31;35338;-93
2022/12/31 11:07:48;;;;;;;;;;;;;;;14.26;49.26;99996.66;4499598;31;34358;-93
2022/12/31 11:10:21;;;;;;;;;;;;;;;14.63;48.27;99965.78;4494145;31;32829;-92
2022/12/31 11:13:01;;;;;;;;;;;;;;;14.16;49.28;99967.00;4476464;31;34876;-88
2022/12/31 11:15:28;;;;;;;;;;;;;;;13.08;52.06;99982.91;4483121;31;34308;-90
2022/12/31 11:18:25;;;;;;;;;;;;;;;13.21;51.60;99990.91;4475310;31;34075;-92
2022/12/31 11:20:54;;;;;;;;;;;;;;;13.78;50.25;99977.84;4440026;32;33660;-84
2022/12/31 11:23:29;;;;;;;;;;;;;;;14.05;49.61;99977.34;4473698;32;34918;-92
2022/12/31 11:26:15;;;;;;;;;;;;;;;14.65;48.02;99966.66;4472091;32;34480;-94
2022/12/31 11:28:43;;;;;;;;;;;;;;;14.50;48.37;99957.81;4492564;31;35020;-93
2022/12/31 11:31:29;;;;;;;;;;;;;;;14.55;48.14;99958.75;4482715;32;33526;-92
2022/12/31 11:33:59;;;;;;;;;;;;;;;14.47;48.64;99968.22;4485752;31;35088;-89
2022/12/31 11:36:36;;;;;;;;;;;;;;;13.94;50.07;99960.69;4476573;31;34673;-91
2022/12/31 11:39:27;;;;;;;;;;;;;;;14.19;49.58;99976.59;4475671;32;34267;-85
2022/12/31 11:42:16;;;;;;;;;;;;;;;14.32;49.44;99955.87;4470161;32;33693;-93
2022/12/31 11:44:49;;;;;;;;;;;;;;;14.83;48.44;99948.53;4498637;31;33808;-82
2022/12/31 11:47:25;;;;;;;;;;;;;;;15.08;47.33;99939.16;4467021;32;32812;-90
2022/12/31 11:49:57;;;;;;;;;;;;;;;14.22;49.34;99935.78;4467084;32;34593;-82
2022/12/31 11:52:33;;;;;;;;;;;;;;;14.10;50.00;99939.13;4484312;31;33706;-86
2022/12/31 11:55:07;;;;;;;;;;;;;;;14.47;49.23;99933.41;4473838;32;33882;-89
2022/12/31 11:57:37;;;;;;;;;;;;;;;15.06;48.13;99943.50;4474948;31;34061;-89
2022/12/31 12:00:08;;;;;;;;;;;;;;;14.99;47.90;99973.03;4471614;31;34813;-84
2022/12/31 12:02:41;;;;;;;;;;;;;;;15.35;47.54;99977.66;4488163;31;34531;-82
2022/12/31 12:05:08;;;;;;;;;;;;;;;14.66;49.35;99969.28;4479767;31;34255;-89
2022/12/31 12:07:37;;;;;;;;;;;;;;;15.48;47.13;99982.06;4475794;31;34302;-91
2022/12/31 12:10:16;;;;;;;;;;;;;;;14.25;50.24;99987.97;4478391;31;35003;-90
2022/12/31 12:12:43;;;;;;;;;;;;;;;14.73;49.06;99978.91;4466376;32;33628;-90
2022/12/31 12:15:16;;;;;;;;;;;;;;;14.96;48.73;99973.88;4485584;31;33648;-88
2022/12/31 12:17:47;;;;;;;;;;;;;;;15.68;46.91;99974.41;4467029;32;34409;-92
2022/12/31 12:20:16;;;;;;;;;;;;;;;15.40;47.18;99964.59;4473371;31;34641;-82
2022/12/31 12:22:47;;;;;;;;;;;;;;;15.14;47.97;99969.66;4477135;32;33184;-87
2022/12/31 12:25:17;;;;;;;;;;;;;;;15.39;47.45;99968.97;4471741;32;34948;-89
2022/12/31 12:27:47;;;;;;;;;;;;;;;15.53;47.27;99962.09;4470442;31;34102;-90
2022/12/31 12:30:18;;;;;;;;;;;;;;;15.76;46.89;99972.69;4477108;31;34745;-95
2022/12/31 12:32:51;;;;;;;;;;;;;;;15.95;46.51;99973.62;4471656;32;34228;-84
2022/12/31 12:35:22;;;;;;;;;;;;;;;14.96;48.62;99967.78;4468363;31;33536;-80
2022/12/31 12:37:57;;;;;;;;;;;;;;;15.33;48.20;99971.53;4493678;31;34206;-80
2022/12/31 12:40:25;;;;;;;;;;;;;;;15.02;49.03;99954.78;4475022;31;34533;-92
2022/12/31 12:43:17;;;;;;;;;;;;;;;15.34;48.22;99965.44;4473029;31;33220;-85
2022/12/31 12:45:44;;;;;;;;;;;;;;;15.47;48.01;99979.47;4468563;31;34031;-87
2022/12/31 12:48:25;;;;;;;;;;;;;;;15.69;47.80;99972.66;4475251;32;34362;-89
2022/12/31 12:50:53;;;;;;;;;;;;;;;14.74;50.27;99951.97;4484567;31;34875;-93
2022/12/31 12:53:26;;;;;;;;;;;;;;;15.37;48.63;99948.91;4471576;32;34548;-88
2022/12/31 12:56:13;;;;;;;;;;;;;;;15.18;49.10;99955.75;4481324;31;34489;-92
2022/12/31 12:58:41;;;;;;;;;;;;;;;15.39;48.56;99960.25;4474329;32;34399;-88
2022/12/31 13:01:23;;;;;;;;;;;;;;;16.54;45.86;99954.59;4478220;31;34182;-83
2022/12/31 13:04:09;;;;;;;;;;;;;;;15.97;47.25;99958.81;4487177;31;33669;-93
2022/12/31 13:07:16;;;;;;;;;;;;;;;15.97;47.39;99961.44;4477859;31;33913;-92
2022/12/31 13:10:03;;;;;;;;;;;;;;;16.23;46.91;99948.44;4475748;31;33563;-85
2022/12/31 13:12:30;;;;;;;;;;;;;;;16.00;47.30;99956.22;4491167;31;33824;-93
2022/12/31 13:15:22;;;;;;;;;;;;;;;16.36;46.69;99964.16;4476460;31;33374;-92
2022/12/31 13:17:50;;;;;;;;;;;;;;;16.04;46.82;99959.72;4471714;31;34217;-92
2022/12/31 13:20:27;;;;;;;;;;;;;;;15.94;47.24;99961.41;4485301;31;34042;-82
2022/12/31 13:23:00;;;;;;;;;;;;;;;16.22;46.91;99972.00;4482099;32;34232;-92
2022/12/31 13:25:27;;;;;;;;;;;;;;;16.57;46.01;99963.31;4467822;32;33158;-89